Time;durP1;ratioP1;P1;durP2;ratioP2;P2;SDS_P1;SDS_P2;PMS_P1;PMS_P2;Temp;Humidity;BMP_temperature;BMP_pressure;BME280_temperature;BME280_humidity;BME280_pressure;Samples;Min_cycle;Max_cycle;Signal;HPM_P1;HPM_P2
2022/10/18 00:01:47;;;;;;;2.90;1.20;;;;;;;17.77;70.79;102634.41;6317108;22;20018;-87
2022/10/18 00:04:13;;;;;;;1.83;1.10;;;;;;;17.76;70.92;102631.75;6342938;22;20084;-88
2022/10/18 00:06:38;;;;;;;3.47;1.50;;;;;;;17.75;70.48;102620.47;6315973;22;20007;-88
2022/10/18 00:09:04;;;;;;;2.25;1.30;;;;;;;17.76;70.78;102632.63;6358413;22;20109;-82
2022/10/18 00:11:29;;;;;;;2.83;1.35;;;;;;;17.73;70.69;102629.13;6355663;22;20013;-89
2022/10/18 00:13:56;;;;;;;4.15;1.35;;;;;;;17.74;70.82;102629.13;6353747;22;20002;-88
2022/10/18 00:16:21;;;;;;;2.83;1.23;;;;;;;17.74;70.79;102629.13;6346543;22;20007;-87
2022/10/18 00:18:47;;;;;;;3.80;1.50;;;;;;;17.76;70.73;102634.38;6291358;22;20013;-88
2022/10/18 00:21:16;;;;;;;4.50;1.40;;;;;;;17.75;70.62;102627.44;6317119;22;20015;-88
2022/10/18 00:23:43;;;;;;;2.40;1.42;;;;;;;17.75;70.48;102625.69;6342982;22;20064;-86
2022/10/18 00:26:15;;;;;;;4.28;1.23;;;;;;;17.74;70.64;102623.03;6343777;22;20003;-87
2022/10/18 00:28:41;;;;;;;3.67;1.10;;;;;;;17.72;70.49;102628.22;6342669;22;20006;-88
2022/10/18 00:37:51;;;;;;;2.33;1.08;;;;;;;17.72;70.42;102646.44;6350601;22;20059;-87
2022/10/18 00:40:16;;;;;;;1.38;0.85;;;;;;;17.73;70.59;102643.00;6343989;22;20082;-87
2022/10/18 00:42:42;;;;;;;1.92;1.10;;;;;;;17.73;70.63;102652.56;6318787;22;20013;-87
2022/10/18 00:55:14;;;;;;;1.85;1.20;;;;;;;17.71;70.52;102643.84;6351063;22;20013;-88
2022/10/18 00:57:41;;;;;;;1.67;1.23;;;;;;;17.73;70.41;102648.22;6345284;22;20313;-89
2022/10/18 01:00:37;;;;;;;1.65;1.00;;;;;;;17.71;70.50;102629.09;6317952;22;20431;-88
2022/10/18 01:03:03;;;;;;;2.50;1.27;;;;;;;17.72;70.33;102637.75;6341641;22;20007;-86
2022/10/18 01:05:29;;;;;;;1.30;0.80;;;;;;;17.72;70.43;102646.44;6339865;22;20449;-86
2022/10/18 01:08:29;;;;;;;2.17;0.90;;;;;;;17.72;70.30;102650.78;6314079;22;20006;-86
2022/10/18 01:11:33;;;;;;;1.48;0.88;;;;;;;17.72;70.38;102648.19;6342945;22;20082;-85
2022/10/18 01:14:38;;;;;;;3.40;1.20;;;;;;;17.72;70.27;102653.38;6337548;22;20441;-86
2022/10/18 01:17:23;;;;;;;2.42;1.10;;;;;;;17.71;70.22;102651.66;6338802;22;20003;-86
2022/10/18 01:20:27;;;;;;;2.33;1.20;;;;;;;17.70;70.27;102635.13;6342010;22;20061;-85
2022/10/18 01:36:10;;;;;;;3.10;1.10;;;;;;;17.68;70.10;102647.22;6356365;22;20084;-87
2022/10/18 01:38:38;;;;;;;1.73;0.90;;;;;;;17.68;70.08;102658.56;6344833;22;20312;-87
2022/10/18 01:41:06;;;;;;;2.28;1.13;;;;;;;17.68;70.28;102652.44;6318825;22;20038;-89
2022/10/18 01:43:34;;;;;;;1.67;0.90;;;;;;;17.68;70.07;102658.56;6344824;22;20010;-87
2022/10/18 01:46:00;;;;;;;1.83;1.00;;;;;;;17.68;70.12;102657.66;6343252;22;20014;-87
2022/10/18 01:48:26;;;;;;;2.42;1.27;;;;;;;17.68;69.88;102655.03;6346020;22;20006;-88
2022/10/18 01:50:52;;;;;;;2.42;1.02;;;;;;;17.69;69.96;102659.41;6345613;22;20018;-87
2022/10/18 01:53:30;;;;;;;2.42;1.00;;;;;;;17.66;70.23;102656.78;6346793;22;20496;-87
2022/10/18 01:56:16;;;;;;;4.07;1.10;;;;;;;17.68;70.08;102662.84;6322710;22;20037;-87
2022/10/18 02:11:38;;;;;;;2.05;1.05;;;;;;;17.64;69.92;102654.13;6356514;22;20018;-86
2022/10/18 02:14:16;;;;;;;1.60;0.93;;;;;;;17.66;70.03;102664.59;6347116;22;20089;-86
2022/10/18 02:16:50;;;;;;;1.52;0.80;;;;;;;17.67;70.09;102663.72;6349961;22;20035;-82
2022/10/18 02:19:52;;;;;;;1.25;0.70;;;;;;;17.65;69.93;102668.88;6341437;22;20006;-86
2022/10/18 02:22:19;;;;;;;1.75;0.98;;;;;;;17.65;69.87;102666.28;6291863;22;20010;-86
2022/10/18 02:24:49;;;;;;;1.80;1.00;;;;;;;17.64;69.73;102672.34;6313937;22;20014;-86
2022/10/18 02:27:15;;;;;;;1.10;0.77;;;;;;;17.65;69.84;102668.00;6340283;22;20335;-87
2022/10/18 02:29:42;;;;;;;1.48;0.85;;;;;;;17.66;69.85;102670.66;6346508;22;20003;-87
2022/10/18 02:32:07;;;;;;;1.42;0.80;;;;;;;17.66;69.88;102662.84;6319068;22;20015;-88
2022/10/18 02:41:03;;;;;;;1.30;0.80;;;;;;;17.65;70.01;102670.63;6351700;22;20049;-87
2022/10/18 02:43:29;;;;;;;1.25;0.85;;;;;;;17.64;69.70;102669.75;6348181;22;20010;-90
2022/10/18 02:45:54;;;;;;;2.20;0.80;;;;;;;17.62;69.67;102668.84;6348143;22;20014;-88
2022/10/18 02:48:20;;;;;;;0.77;0.68;;;;;;;17.63;69.57;102675.78;6321339;22;20011;-88
2022/10/18 02:50:45;;;;;;;1.02;0.70;;;;;;;17.64;69.73;102674.09;6347619;22;20002;-87
2022/10/18 02:53:10;;;;;;;1.42;0.70;;;;;;;17.63;69.64;102674.91;6295293;22;20464;-87
2022/10/18 02:59:07;;;;;;;1.65;0.90;;;;;;;17.61;69.71;102674.00;6383119;22;20022;-86
2022/10/18 03:01:34;;;;;;;1.38;0.80;;;;;;;17.63;69.56;102680.13;6348687;22;20080;-85
2022/10/18 03:04:00;;;;;;;1.50;0.82;;;;;;;17.62;69.52;102673.19;6321644;22;20015;-86
2022/10/18 03:06:26;;;;;;;1.25;0.73;;;;;;;17.62;69.56;102678.38;6320969;22;20102;-85
2022/10/18 03:08:51;;;;;;;1.23;0.80;;;;;;;17.63;69.77;102667.09;6320200;22;20016;-86
2022/10/18 03:11:17;;;;;;;1.00;0.75;;;;;;;17.63;69.57;102674.91;6318803;22;20007;-86
2022/10/18 03:13:42;;;;;;;0.80;0.70;;;;;;;17.61;69.50;102667.06;6346172;22;20059;-85
2022/10/18 03:16:08;;;;;;;1.55;0.80;;;;;;;17.61;69.54;102674.88;6320935;22;20013;-85
2022/10/18 03:18:33;;;;;;;1.67;0.80;;;;;;;17.62;69.58;102679.25;6321954;22;20002;-85
2022/10/18 03:21:03;;;;;;;0.88;0.60;;;;;;;17.61;69.35;102674.00;6322315;22;20029;-85
2022/10/18 03:23:28;;;;;;;1.75;0.80;;;;;;;17.60;69.42;102672.25;6350832;22;20011;-85
2022/10/18 03:25:54;;;;;;;1.23;0.70;;;;;;;17.61;69.51;102671.41;6324349;22;20010;-85
2022/10/18 03:28:19;;;;;;;1.67;0.95;;;;;;;17.61;69.55;102674.00;6323908;22;20434;-86
2022/10/18 03:30:45;;;;;;;0.88;0.68;;;;;;;17.61;69.44;102671.41;6349274;22;20076;-84
2022/10/18 03:33:10;;;;;;;1.25;0.75;;;;;;;17.60;69.46;102677.47;6324195;22;20430;-86
2022/10/18 03:35:35;;;;;;;0.88;0.70;;;;;;;17.60;69.40;102682.69;6322615;22;20033;-85
2022/10/18 03:38:01;;;;;;;1.40;0.70;;;;;;;17.59;69.25;102684.38;6323665;22;20005;-85
2022/10/18 03:40:26;;;;;;;1.73;0.77;;;;;;;17.60;69.37;102674.88;6322181;22;20037;-85
2022/10/18 03:42:52;;;;;;;1.30;0.70;;;;;;;17.58;69.35;102672.22;6332974;22;20033;-81
2022/10/18 03:45:17;;;;;;;1.13;0.68;;;;;;;17.59;69.61;102675.69;6326577;22;20018;-86
2022/10/18 03:47:42;;;;;;;1.38;0.70;;;;;;;17.57;69.27;102673.09;6328845;22;20002;-86
2022/10/18 03:50:08;;;;;;;0.82;0.60;;;;;;;17.57;69.44;102673.09;6333295;22;20005;-87
2022/10/18 03:52:33;;;;;;;0.60;0.60;;;;;;;17.58;69.22;102676.56;6333012;22;20032;-88
2022/10/18 03:54:59;;;;;;;1.20;0.77;;;;;;;17.58;69.54;102676.56;6326343;22;20006;-85
2022/10/18 03:57:24;;;;;;;1.60;0.73;;;;;;;17.56;69.16;102681.72;6322811;22;20010;-87
2022/10/18 03:59:50;;;;;;;0.98;0.65;;;;;;;17.57;69.30;102677.41;6292962;22;20453;-86
2022/10/18 04:02:15;;;;;;;1.70;0.70;;;;;;;17.56;69.15;102676.53;6293554;22;20007;-86
2022/10/18 04:04:42;;;;;;;1.20;0.80;;;;;;;17.56;69.32;102673.06;6293633;22;20006;-85
2022/10/18 04:07:07;;;;;;;0.77;0.52;;;;;;;17.56;69.22;102675.66;6294833;22;20007;-86
2022/10/18 04:09:33;;;;;;;1.02;0.52;;;;;;;17.56;69.33;102675.66;6295527;22;20079;-85
2022/10/18 04:11:58;;;;;;;1.42;0.70;;;;;;;17.54;69.21;102675.63;6267568;22;20011;-85
2022/10/18 04:14:23;;;;;;;1.25;0.80;;;;;;;17.55;69.35;102681.69;6294817;22;20014;-86
2022/10/18 04:16:49;;;;;;;0.80;0.60;;;;;;;17.54;69.14;102690.38;6293860;22;20038;-87
2022/10/18 04:19:15;;;;;;;0.70;0.60;;;;;;;17.54;69.01;102699.03;6319489;22;20094;-87
2022/10/18 04:21:40;;;;;;;1.48;0.70;;;;;;;17.55;69.17;102697.31;6346517;22;19998;-86
2022/10/18 04:24:06;;;;;;;1.00;0.70;;;;;;;17.54;69.34;102691.22;6323796;22;20010;-86
2022/10/18 04:26:31;;;;;;;1.17;0.73;;;;;;;17.53;69.01;102694.69;6321792;22;20450;-86
2022/10/18 04:28:56;;;;;;;0.93;0.60;;;;;;;17.53;69.16;102688.59;6292816;22;20003;-86
2022/10/18 04:31:22;;;;;;;0.98;0.60;;;;;;;17.54;69.16;102692.97;6291796;22;20007;-86
2022/10/18 04:33:47;;;;;;;1.27;0.70;;;;;;;17.54;69.18;102679.94;6292408;22;20030;-85
2022/10/18 04:36:50;;;;;;;1.10;0.60;;;;;;;17.54;69.00;102682.56;6292172;22;20059;-86
2022/10/18 04:39:30;;;;;;;0.98;0.65;;;;;;;17.52;68.97;102685.13;6347285;22;20384;-85
2022/10/18 04:41:56;;;;;;;1.20;0.70;;;;;;;17.52;69.09;102695.53;6268294;22;20026;-87
2022/10/18 04:44:21;;;;;;;1.00;0.60;;;;;;;17.53;68.93;102693.78;6319368;22;20010;-86
2022/10/18 04:46:46;;;;;;;1.33;0.75;;;;;;;17.53;68.87;102701.59;6294452;22;20441;-85
2022/10/18 04:49:12;;;;;;;1.00;0.70;;;;;;;17.53;69.26;102701.59;6294502;22;20067;-86
2022/10/18 04:51:37;;;;;;;1.40;0.75;;;;;;;17.51;69.34;102704.19;6318961;22;20331;-86
2022/10/18 04:54:03;;;;;;;1.27;0.70;;;;;;;17.51;68.89;102695.50;6318594;22;20351;-86
2022/10/18 04:56:28;;;;;;;1.08;0.70;;;;;;;17.51;68.90;102691.19;6292489;22;20006;-86
2022/10/18 04:58:53;;;;;;;0.75;0.65;;;;;;;17.50;68.81;102688.53;6314006;22;20023;-86
2022/10/18 05:01:19;;;;;;;1.05;0.60;;;;;;;17.51;69.03;102700.69;6262212;22;20014;-87
2022/10/18 05:03:44;;;;;;;1.00;0.60;;;;;;;17.50;68.57;102706.75;6286752;22;20007;-86
2022/10/18 05:06:10;;;;;;;1.15;0.70;;;;;;;17.52;69.12;102712.88;6313021;22;20011;-86
2022/10/18 05:08:35;;;;;;;0.90;0.60;;;;;;;17.51;69.03;102705.91;6295977;22;20015;-85
2022/10/18 05:11:02;;;;;;;1.80;0.70;;;;;;;17.50;69.02;102704.16;6313670;22;20007;-87
2022/10/18 05:13:28;;;;;;;1.33;0.63;;;;;;;17.48;68.79;102704.13;6312101;22;20071;-86
2022/10/18 05:15:54;;;;;;;0.57;0.50;;;;;;;17.47;69.00;102705.84;6288526;22;20014;-85
2022/10/18 05:18:19;;;;;;;1.00;0.70;;;;;;;17.51;68.88;102721.50;6264566;22;20007;-87
2022/10/18 05:20:45;;;;;;;0.82;0.52;;;;;;;17.48;69.13;102718.03;6287670;22;20078;-86
2022/10/18 05:23:11;;;;;;;2.00;0.77;;;;;;;17.48;68.91;102707.63;6286330;22;20003;-86
2022/10/18 05:25:38;;;;;;;7.50;2.47;;;;;;;17.48;68.89;102706.72;6260936;22;20014;-84
2022/10/18 05:28:04;;;;;;;4.80;1.90;;;;;;;17.50;69.47;102717.16;6284793;22;20466;-83
2022/10/18 05:30:29;;;;;;;6.82;2.30;;;;;;;17.56;69.14;102722.50;6307868;22;20128;-82
2022/10/18 05:32:54;;;;;;;7.30;2.25;;;;;;;17.60;68.80;102732.16;6307061;22;19999;-80
2022/10/18 05:35:20;;;;;;;5.75;2.22;;;;;;;17.62;68.40;102731.31;6307397;22;20003;-81
2022/10/18 05:37:45;;;;;;;4.97;1.90;;;;;;;17.62;68.47;102731.31;6281339;22;20003;-79
2022/10/18 05:40:11;;;;;;;4.88;1.90;;;;;;;17.64;68.58;102727.03;6306991;22;20045;-80
2022/10/18 05:42:36;;;;;;;6.15;2.17;;;;;;;17.66;68.44;102732.28;6308772;22;20052;-80
2022/10/18 05:45:01;;;;;;;6.03;2.33;;;;;;;17.67;68.36;102734.00;6306878;22;20003;-80
2022/10/18 05:47:27;;;;;;;4.47;1.70;;;;;;;17.71;68.25;102732.38;6307007;22;20010;-81
2022/10/18 05:49:52;;;;;;;5.25;2.10;;;;;;;17.72;68.25;102734.09;6307171;22;20001;-81
2022/10/18 05:52:18;;;;;;;4.32;1.92;;;;;;;17.73;68.09;102739.34;6282071;22;20489;-82
2022/10/18 05:54:43;;;;;;;4.88;1.80;;;;;;;17.74;67.99;102742.81;6306851;22;20072;-80
2022/10/18 05:57:08;;;;;;;4.03;1.77;;;;;;;17.74;68.04;102755.84;6280724;22;20011;-82
2022/10/18 05:59:34;;;;;;;5.13;1.88;;;;;;;17.73;67.98;102757.56;6306499;22;20066;-82
2022/10/18 06:01:59;;;;;;;5.68;2.03;;;;;;;17.72;68.05;102754.94;6255404;22;20027;-83
2022/10/18 06:04:24;;;;;;;5.20;1.80;;;;;;;17.72;67.98;102757.53;6280733;22;20011;-82
2022/10/18 06:06:50;;;;;;;4.22;1.70;;;;;;;17.71;67.88;102759.28;6255319;22;20026;-80
2022/10/18 06:09:15;;;;;;;3.72;1.65;;;;;;;17.71;67.87;102768.81;6280709;22;20060;-80
2022/10/18 06:11:40;;;;;;;4.97;1.60;;;;;;;17.69;68.03;102780.06;6280281;22;20094;-81
2022/10/18 06:14:06;;;;;;;4.68;1.73;;;;;;;17.68;68.09;102783.53;6306856;22;20053;-82
2022/10/18 06:16:32;;;;;;;3.83;1.60;;;;;;;17.68;68.02;102775.72;6280692;22;20011;-80
2022/10/18 06:18:58;;;;;;;4.75;1.65;;;;;;;17.68;67.97;102760.09;6306683;22;20007;-80
2022/10/18 06:21:24;;;;;;;4.90;1.80;;;;;;;17.69;68.01;102769.66;6281233;22;20007;-80
2022/10/18 06:23:55;;;;;;;3.42;1.60;;;;;;;17.68;67.69;102777.41;6308257;22;20052;-82
2022/10/18 06:26:21;;;;;;;9.18;2.03;;;;;;;17.69;67.77;102785.28;6306369;22;20432;-81
2022/10/18 06:28:47;;;;;;;6.75;1.65;;;;;;;17.67;67.85;102781.75;6308617;22;20033;-81
2022/10/18 06:31:12;;;;;;;5.20;1.45;;;;;;;17.67;67.80;102775.66;6306798;22;20009;-81
2022/10/18 06:33:38;;;;;;;4.47;1.60;;;;;;;17.67;67.80;102784.34;6282293;22;20023;-81
2022/10/18 06:36:07;;;;;;;4.93;1.90;;;;;;;17.68;67.79;102782.63;6306602;22;20011;-80
2022/10/18 06:38:33;;;;;;;3.88;1.80;;;;;;;17.68;67.72;102796.53;6306950;22;20004;-80
2022/10/18 06:40:59;;;;;;;4.93;1.75;;;;;;;17.68;67.70;102799.16;6307925;22;20003;-80
2022/10/18 06:43:25;;;;;;;5.38;1.65;;;;;;;17.69;67.43;102793.09;6306364;22;20039;-80
2022/10/18 06:45:51;;;;;;;5.15;1.67;;;;;;;17.70;67.36;102793.94;6305853;22;20004;-80
2022/10/18 06:48:17;;;;;;;4.63;1.73;;;;;;;17.69;67.66;102798.28;6306376;22;20011;-80
2022/10/18 06:50:53;;;;;;;4.40;1.80;;;;;;;17.72;67.19;102804.41;6306394;22;20002;-81
2022/10/18 06:53:19;;;;;;;5.80;2.20;;;;;;;17.72;67.38;102801.81;6307880;22;19999;-81
2022/10/18 06:55:45;;;;;;;4.15;1.63;;;;;;;17.72;67.40;102800.06;6308376;22;20450;-80
2022/10/18 06:58:11;;;;;;;7.38;1.90;;;;;;;17.73;66.91;102816.59;6311096;22;20014;-80
2022/10/18 07:00:36;;;;;;;5.13;1.77;;;;;;;17.73;67.31;102816.59;6311437;22;20015;-80
2022/10/18 07:03:01;;;;;;;4.68;1.83;;;;;;;17.76;67.28;102812.31;6260351;22;20011;-80
2022/10/18 07:05:27;;;;;;;5.13;1.92;;;;;;;17.76;67.09;102811.44;6311687;22;20021;-80
2022/10/18 07:07:52;;;;;;;7.10;2.00;;;;;;;17.75;67.33;102817.50;6338997;22;20039;-81
2022/10/18 07:10:18;;;;;;;3.65;1.50;;;;;;;17.77;67.36;102823.59;6311454;22;20089;-79
2022/10/18 07:12:43;;;;;;;6.45;1.83;;;;;;;17.77;67.36;102824.50;6285824;22;20014;-79
2022/10/18 07:15:09;;;;;;;4.88;1.77;;;;;;;17.75;67.18;102814.91;6311496;22;20010;-80
2022/10/18 07:17:35;;;;;;;3.13;1.50;;;;;;;17.76;67.15;102812.31;6341060;22;20052;-81
2022/10/18 07:20:03;;;;;;;5.10;1.60;;;;;;;17.77;67.17;102810.59;6288946;22;20011;-81
2022/10/18 07:22:28;;;;;;;4.45;1.63;;;;;;;17.77;67.22;102819.28;6318034;22;20014;-82
2022/10/18 07:24:53;;;;;;;4.22;1.73;;;;;;;17.77;67.02;102827.09;6290230;22;20011;-80
2022/10/18 07:27:19;;;;;;;3.17;1.77;;;;;;;17.77;67.13;102827.09;6288130;22;20010;-83
2022/10/18 07:29:44;;;;;;;3.85;1.75;;;;;;;17.77;66.98;102829.72;6313944;22;20010;-81
2022/10/18 07:32:09;;;;;;;5.28;1.58;;;;;;;17.77;67.04;102836.63;6286877;22;20007;-81
2022/10/18 07:34:35;;;;;;;3.38;1.40;;;;;;;17.79;67.01;102841.03;6261064;22;20083;-81
2022/10/18 07:37:01;;;;;;;2.90;1.40;;;;;;;17.79;67.21;102838.44;6311936;22;20086;-80
2022/10/18 07:39:26;;;;;;;5.43;1.73;;;;;;;17.80;67.07;102836.72;6285767;22;20010;-80
2022/10/18 07:41:51;;;;;;;4.60;1.67;;;;;;;17.82;67.04;102833.31;6286132;22;20011;-81
2022/10/18 07:44:17;;;;;;;5.93;1.77;;;;;;;17.90;67.01;102838.69;6285820;22;20033;-80
2022/10/18 07:46:42;;;;;;;6.60;1.88;;;;;;;18.04;66.70;102844.19;6311714;22;20006;-80
2022/10/18 07:49:07;;;;;;;3.13;1.27;;;;;;;18.19;66.20;102839.28;6339093;22;20007;-80
2022/10/18 07:51:34;;;;;;;5.85;1.75;;;;;;;18.32;65.57;102850.81;6285605;22;20103;-79
2022/10/18 07:54:00;;;;;;;6.07;1.83;;;;;;;18.39;65.69;102850.09;6311768;22;20423;-79
2022/10/18 07:56:25;;;;;;;3.50;1.50;;;;;;;18.42;65.59;102854.47;6311499;22;20010;-80
2022/10/18 07:58:54;;;;;;;5.43;1.65;;;;;;;18.46;65.75;102858.91;6339844;22;20015;-79
2022/10/18 08:01:21;;;;;;;3.22;1.80;;;;;;;18.48;65.35;102852.84;6311262;22;19999;-79
2022/10/18 08:03:47;;;;;;;4.32;1.60;;;;;;;18.48;66.15;102858.06;6312382;22;20007;-79
2022/10/18 08:06:15;;;;;;;2.97;1.42;;;;;;;18.48;66.37;102846.78;6287345;22;20461;-80
2022/10/18 08:08:41;;;;;;;4.63;1.60;;;;;;;18.45;65.94;102844.13;6313045;22;20430;-80
2022/10/18 08:11:21;;;;;;;3.63;1.40;;;;;;;18.46;66.60;102856.28;6313559;22;20081;-80
2022/10/18 08:13:46;;;;;;;5.10;1.60;;;;;;;18.46;66.35;102853.69;6340598;22;20002;-79
2022/10/18 08:16:15;;;;;;;3.22;1.45;;;;;;;18.48;66.32;102849.38;6287236;22;20011;-80
2022/10/18 08:18:41;;;;;;;4.57;1.35;;;;;;;18.47;66.64;102853.72;6313024;22;20406;-79
2022/10/18 08:21:09;;;;;;;4.20;1.50;;;;;;;18.46;66.28;102858.91;6340372;22;20053;-78
2022/10/18 08:23:35;;;;;;;3.70;1.40;;;;;;;18.45;66.32;102859.75;6313000;22;20017;-79
2022/10/18 08:26:09;;;;;;;5.88;1.48;;;;;;;18.45;66.64;102867.59;6312987;22;20443;-79
2022/10/18 08:28:35;;;;;;;4.38;1.75;;;;;;;18.44;66.38;102869.31;6313149;22;20013;-78
2022/10/18 08:31:10;;;;;;;3.08;1.20;;;;;;;18.45;66.52;102872.81;6261592;22;20011;-79
2022/10/18 08:33:35;;;;;;;2.20;1.30;;;;;;;18.44;66.81;102876.25;6340329;22;20002;-80
2022/10/18 08:36:04;;;;;;;2.85;1.27;;;;;;;18.42;66.63;102865.81;6313086;22;20419;-80
2022/10/18 08:38:31;;;;;;;3.25;1.50;;;;;;;18.41;66.50;102866.63;6287105;22;20022;-80
2022/10/18 08:41:28;;;;;;;3.35;1.52;;;;;;;18.41;66.82;102879.66;6313545;22;20007;-79
2022/10/18 08:44:02;;;;;;;3.15;1.48;;;;;;;18.43;66.91;102884.94;6313736;22;20006;-78
2022/10/18 08:46:29;;;;;;;2.70;1.20;;;;;;;18.41;66.54;102886.63;6340280;22;20003;-79
2022/10/18 08:48:55;;;;;;;2.22;1.20;;;;;;;18.39;66.66;102886.59;6313028;22;20096;-79
2022/10/18 08:51:41;;;;;;;3.13;1.40;;;;;;;18.39;66.46;102880.50;6312755;22;19999;-80
2022/10/18 08:54:11;;;;;;;2.83;1.33;;;;;;;18.38;66.67;102895.25;6312978;22;20445;-79
2022/10/18 08:56:39;;;;;;;3.95;1.55;;;;;;;18.38;66.49;102896.97;6340580;22;20048;-79
2022/10/18 08:59:09;;;;;;;2.88;1.40;;;;;;;18.36;66.60;102902.19;6312388;22;20470;-79
2022/10/18 09:02:03;;;;;;;3.65;1.30;;;;;;;18.35;66.49;102904.75;6312410;22;20007;-79
2022/10/18 09:04:42;;;;;;;;;;;;;;;18.33;66.69;102893.41;6312946;22;19998;-79
2022/10/18 09:07:36;;;;;;;3.92;1.30;;;;;;;18.32;66.63;102908.16;6312474;22;19940;-79
2022/10/18 09:10:28;;;;;;;3.25;1.27;;;;;;;18.30;66.54;102908.13;6312127;22;20014;-80
2022/10/18 09:13:09;;;;;;;2.50;1.10;;;;;;;18.30;66.94;102892.50;6312803;22;20014;-80
2022/10/18 09:15:40;;;;;;;3.42;1.27;;;;;;;18.30;66.91;102900.31;6340357;22;20034;-79
2022/10/18 09:18:08;;;;;;;2.53;1.30;;;;;;;18.29;66.87;102906.38;6313846;22;20065;-82
2022/10/18 09:20:55;;;;;;;2.28;1.10;;;;;;;18.30;66.68;102910.72;6314909;22;20087;-81
2022/10/18 09:23:39;;;;;;;3.08;1.33;;;;;;;18.29;66.68;102922.03;6341715;22;19998;-79
2022/10/18 09:26:18;;;;;;;4.38;1.42;;;;;;;18.29;66.85;102923.72;6342390;22;20373;-81
2022/10/18 09:29:03;;;;;;;2.65;1.27;;;;;;;18.29;67.03;102928.94;6325373;22;20014;-82
2022/10/18 09:32:03;;;;;;;3.38;1.13;;;;;;;18.30;66.82;102930.72;6322133;22;20002;-83
2022/10/18 09:35:04;;;;;;;2.42;1.10;;;;;;;18.30;66.97;102925.50;6277039;22;20036;-83
2022/10/18 09:37:33;;;;;;;2.53;1.20;;;;;;;18.28;66.84;102930.69;6320994;22;20059;-83
2022/10/18 09:40:12;;;;;;;3.10;1.20;;;;;;;18.28;66.85;102935.00;6325840;22;20003;-84
2022/10/18 09:43:05;;;;;;;2.85;1.17;;;;;;;18.28;66.81;102943.69;6349648;22;20003;-82
2022/10/18 09:45:36;;;;;;;4.18;1.10;;;;;;;18.28;66.90;102943.69;6342999;22;20003;-82
2022/10/18 09:48:29;;;;;;;3.83;1.05;;;;;;;18.27;66.82;102936.75;6317291;22;20006;-84
2022/10/18 09:51:10;;;;;;;3.63;1.10;;;;;;;18.28;66.70;102929.81;6317074;22;20041;-83
2022/10/18 09:53:54;;;;;;;2.63;1.20;;;;;;;18.27;66.83;102947.19;6316242;22;20036;-84
2022/10/18 09:56:31;;;;;;;2.47;1.13;;;;;;;18.26;67.02;102948.00;6318013;22;20007;-82
2022/10/18 09:58:57;;;;;;;2.58;1.27;;;;;;;18.25;66.97;102938.44;6343611;22;20018;-82
2022/10/18 10:01:29;;;;;;;3.67;1.30;;;;;;;18.26;66.69;102950.59;6289267;22;20015;-82
2022/10/18 10:03:55;;;;;;;2.10;0.90;;;;;;;18.24;66.79;102939.28;6342973;22;20007;-82
2022/10/18 10:06:29;;;;;;;3.72;1.40;;;;;;;18.24;66.85;102938.41;6315770;22;20038;-80
2022/10/18 10:08:59;;;;;;;2.92;1.10;;;;;;;18.24;66.65;102938.41;6344016;22;20394;-84
2022/10/18 10:11:29;;;;;;;2.08;1.10;;;;;;;18.23;66.83;102937.53;6344147;22;20010;-84
2022/10/18 10:14:16;;;;;;;4.18;1.00;;;;;;;18.24;66.92;102941.88;6316438;22;20010;-83
2022/10/18 10:17:02;;;;;;;2.67;1.00;;;;;;;18.24;66.81;102946.22;6315658;22;20007;-84
2022/10/18 10:19:30;;;;;;;3.47;1.23;;;;;;;18.24;66.86;102952.31;6314490;22;20006;-84
2022/10/18 10:22:07;;;;;;;3.03;1.20;;;;;;;18.23;66.90;102950.56;6342926;22;20003;-84
2022/10/18 10:24:45;;;;;;;1.75;1.00;;;;;;;18.23;67.00;102955.78;6314259;22;20010;-83
2022/10/18 10:27:20;;;;;;;2.38;0.90;;;;;;;18.24;67.03;102954.91;6312127;22;20303;-82
2022/10/18 10:29:50;;;;;;;1.85;1.00;;;;;;;18.23;67.02;102960.97;6313308;22;20014;-83
2022/10/18 10:32:20;;;;;;;1.85;0.85;;;;;;;18.25;66.92;102963.63;6340997;22;20002;-83
2022/10/18 10:34:46;;;;;;;2.13;0.98;;;;;;;18.24;66.79;102964.47;6313289;22;20033;-82
2022/10/18 10:37:23;;;;;;;2.65;0.98;;;;;;;18.24;66.72;102964.47;6313019;22;20038;-83
2022/10/18 10:40:12;;;;;;;1.83;0.90;;;;;;;18.23;66.72;102974.00;6313176;22;20011;-81
2022/10/18 10:42:51;;;;;;;3.22;1.10;;;;;;;18.23;66.95;102968.81;6340406;22;20003;-84
2022/10/18 10:45:18;;;;;;;2.58;1.08;;;;;;;18.24;66.81;102973.16;6312614;22;20010;-80
2022/10/18 10:47:44;;;;;;;2.42;1.00;;;;;;;18.23;67.08;102976.63;6340022;22;20011;-79
2022/10/18 10:50:11;;;;;;;2.28;1.05;;;;;;;18.23;66.89;102975.75;6262478;22;20491;-80
2022/10/18 10:52:39;;;;;;;4.25;1.50;;;;;;;18.24;66.74;102987.91;6260603;22;20006;-79
2022/10/18 10:55:15;;;;;;;3.42;1.02;;;;;;;18.24;66.62;102987.91;6312134;22;20018;-79
2022/10/18 10:57:46;;;;;;;3.15;1.00;;;;;;;18.24;66.55;102985.31;6288339;22;20018;-79
2022/10/18 11:00:41;;;;;;;4.50;1.20;;;;;;;18.24;66.65;102987.91;6311205;22;20090;-80
2022/10/18 11:03:14;;;;;;;3.22;1.20;;;;;;;18.24;66.67;102987.91;6339571;22;20018;-80
2022/10/18 11:05:49;;;;;;;2.35;1.10;;;;;;;18.25;66.57;102994.91;6311540;22;19999;-80
2022/10/18 11:08:19;;;;;;;2.65;1.00;;;;;;;18.24;66.58;102994.00;6311645;22;20006;-78
2022/10/18 11:11:15;;;;;;;1.70;0.90;;;;;;;18.25;66.73;102990.56;6339168;22;20003;-79
2022/10/18 11:14:29;;;;;;;2.53;1.02;;;;;;;18.27;66.58;102982.78;6326561;22;20007;-78
2022/10/18 11:17:26;;;;;;;2.15;1.10;;;;;;;18.25;66.56;102985.34;6257346;22;20047;-79
2022/10/18 11:20:02;;;;;;;2.40;1.00;;;;;;;18.26;66.55;102996.66;6310137;22;20045;-81
2022/10/18 11:22:35;;;;;;;3.33;1.00;;;;;;;18.25;66.41;102992.31;6311518;22;20014;-80
2022/10/18 11:25:03;;;;;;;2.43;1.20;;;;;;;18.25;66.33;102990.56;6311315;22;20093;-81
2022/10/18 11:27:41;;;;;;;3.55;1.08;;;;;;;18.26;66.68;102996.66;6312004;22;20327;-80
2022/10/18 11:30:21;;;;;;;2.50;1.02;;;;;;;18.27;66.46;103003.63;6311680;22;19999;-80
2022/10/18 11:32:56;;;;;;;3.60;1.00;;;;;;;18.27;66.46;102995.81;6312213;22;20330;-79
2022/10/18 11:35:31;;;;;;;3.17;0.90;;;;;;;18.28;66.65;103001.03;6339031;22;20052;-79
2022/10/18 11:38:21;;;;;;;2.03;0.90;;;;;;;18.29;66.35;103001.91;6339900;22;20002;-78
2022/10/18 11:41:15;;;;;;;2.22;0.93;;;;;;;18.28;66.43;102998.44;6341232;22;20003;-79
2022/10/18 11:43:55;;;;;;;1.80;0.80;;;;;;;18.28;66.51;102994.97;6313373;22;20456;-79
2022/10/18 11:46:43;;;;;;;3.30;1.08;;;;;;;18.27;66.28;102996.69;6341014;22;20013;-80
2022/10/18 11:49:23;;;;;;;2.28;0.90;;;;;;;18.28;66.53;103011.47;6313372;22;20074;-79
2022/10/18 11:51:48;;;;;;;2.92;1.00;;;;;;;18.27;66.43;103001.91;6313328;22;20492;-79
2022/10/18 11:54:47;;;;;;;2.63;0.90;;;;;;;18.29;66.48;102991.50;6340796;22;20003;-79
2022/10/18 11:57:22;;;;;;;2.40;0.85;;;;;;;18.28;66.30;103006.25;6313166;22;20003;-79
2022/10/18 12:00:03;;;;;;;2.30;1.08;;;;;;;18.28;66.31;103000.16;6341330;22;20050;-83
2022/10/18 12:02:31;;;;;;;2.95;1.00;;;;;;;18.29;66.40;102996.72;6341012;22;20022;-79
2022/10/18 12:05:00;;;;;;;3.30;0.93;;;;;;;18.29;66.35;102992.41;6313701;22;20011;-80
2022/10/18 12:07:31;;;;;;;2.38;0.68;;;;;;;18.30;66.46;102988.06;6341266;22;20006;-80
2022/10/18 12:09:59;;;;;;;2.42;0.93;;;;;;;18.30;66.38;102983.72;6313520;22;19999;-80
2022/10/18 12:12:30;;;;;;;2.70;1.00;;;;;;;18.30;66.60;102983.72;6340970;22;19998;-80
2022/10/18 12:15:01;;;;;;;3.03;1.00;;;;;;;18.30;66.50;102986.31;6342748;22;19995;-79
2022/10/18 12:17:29;;;;;;;2.05;0.70;;;;;;;18.29;66.34;102971.53;6313269;22;20006;-81
2022/10/18 12:19:58;;;;;;;2.60;1.05;;;;;;;18.30;66.43;102978.50;6313342;22;20351;-81
2022/10/18 12:22:31;;;;;;;2.08;0.88;;;;;;;18.30;66.35;102982.84;6340533;22;19999;-79
2022/10/18 12:24:56;;;;;;;5.22;0.80;;;;;;;18.32;66.34;102980.28;6313012;22;20006;-79
2022/10/18 12:27:35;;;;;;;2.45;0.90;;;;;;;18.32;66.35;102981.16;6287287;22;20014;-79
2022/10/18 12:30:21;;;;;;;2.65;1.05;;;;;;;18.30;66.40;102973.28;6340559;22;20293;-80
2022/10/18 12:32:48;;;;;;;3.30;0.82;;;;;;;18.31;66.45;102981.97;6312946;22;20011;-79
2022/10/18 12:35:18;;;;;;;2.42;0.85;;;;;;;18.30;66.41;102965.47;6340571;22;19999;-79